sensor_id;sensor_type;location;lat;lon;timestamp;P1;durP1;ratioP1;P2;durP2;ratioP2
64186;SDS011;50491;39.484;-8.540;2023-07-30T00:01:47;2.20;;;1.48;;
64186;SDS011;50491;39.484;-8.540;2023-07-30T00:04:06;2.83;;;1.25;;
64186;SDS011;50491;39.484;-8.540;2023-07-30T00:06:44;4.45;;;0.98;;
64186;SDS011;50491;39.484;-8.540;2023-07-30T00:08:44;2.08;;;1.00;;
64186;SDS011;50491;39.484;-8.540;2023-07-30T00:10:45;2.40;;;0.77;;
64186;SDS011;50491;39.484;-8.540;2023-07-30T00:20:21;2.95;;;1.00;;
64186;SDS011;50491;39.484;-8.540;2023-07-30T00:22:45;1.50;;;0.90;;
64186;SDS011;50491;39.484;-8.540;2023-07-30T00:27:05;1.00;;;0.80;;
64186;SDS011;50491;39.484;-8.540;2023-07-30T00:29:07;2.47;;;1.15;;
64186;SDS011;50491;39.484;-8.540;2023-07-30T00:31:27;1.13;;;0.98;;
64186;SDS011;50491;39.484;-8.540;2023-07-30T00:33:46;2.10;;;1.20;;
64186;SDS011;50491;39.484;-8.540;2023-07-30T00:36:06;2.55;;;1.10;;
64186;SDS011;50491;39.484;-8.540;2023-07-30T00:38:07;4.88;;;1.25;;
64186;SDS011;50491;39.484;-8.540;2023-07-30T00:40:26;1.08;;;0.80;;
64186;SDS011;50491;39.484;-8.540;2023-07-30T00:42:27;2.03;;;0.90;;
64186;SDS011;50491;39.484;-8.540;2023-07-30T00:44:27;3.08;;;1.00;;
64186;SDS011;50491;39.484;-8.540;2023-07-30T00:46:28;3.63;;;1.50;;
64186;SDS011;50491;39.484;-8.540;2023-07-30T00:48:47;1.48;;;0.80;;
64186;SDS011;50491;39.484;-8.540;2023-07-30T00:50:47;2.33;;;1.10;;
64186;SDS011;50491;39.484;-8.540;2023-07-30T00:53:08;3.42;;;0.93;;
64186;SDS011;50491;39.484;-8.540;2023-07-30T00:55:28;2.22;;;1.30;;
64186;SDS011;50491;39.484;-8.540;2023-07-30T00:57:34;1.35;;;1.10;;
64186;SDS011;50491;39.484;-8.540;2023-07-30T00:59:55;2.15;;;0.80;;
64186;SDS011;50491;39.484;-8.540;2023-07-30T01:01:56;2.38;;;1.10;;
64186;SDS011;50491;39.484;-8.540;2023-07-30T01:04:16;3.35;;;1.30;;
64186;SDS011;50491;39.484;-8.540;2023-07-30T01:06:17;2.05;;;1.10;;
64186;SDS011;50491;39.484;-8.540;2023-07-30T01:08:39;6.53;;;1.73;;
64186;SDS011;50491;39.484;-8.540;2023-07-30T01:10:40;4.57;;;1.58;;
64186;SDS011;50491;39.484;-8.540;2023-07-30T01:12:41;1.35;;;1.08;;
64186;SDS011;50491;39.484;-8.540;2023-07-30T01:14:43;1.85;;;1.10;;
64186;SDS011;50491;39.484;-8.540;2023-07-30T01:17:04;2.08;;;1.13;;
64186;SDS011;50491;39.484;-8.540;2023-07-30T01:19:30;4.00;;;1.27;;
64186;SDS011;50491;39.484;-8.540;2023-07-30T01:21:50;1.33;;;1.23;;
64186;SDS011;50491;39.484;-8.540;2023-07-30T01:24:09;1.95;;;0.82;;
64186;SDS011;50491;39.484;-8.540;2023-07-30T01:26:35;2.55;;;1.13;;
64186;SDS011;50491;39.484;-8.540;2023-07-30T01:28:41;0.90;;;0.90;;
64186;SDS011;50491;39.484;-8.540;2023-07-30T01:30:44;2.92;;;1.50;;
64186;SDS011;50491;39.484;-8.540;2023-07-30T01:32:45;3.75;;;1.10;;
64186;SDS011;50491;39.484;-8.540;2023-07-30T01:34:49;2.28;;;1.30;;
64186;SDS011;50491;39.484;-8.540;2023-07-30T01:36:53;3.33;;;1.20;;
64186;SDS011;50491;39.484;-8.540;2023-07-30T01:39:12;3.42;;;0.90;;
64186;SDS011;50491;39.484;-8.540;2023-07-30T01:41:13;1.40;;;1.20;;
64186;SDS011;50491;39.484;-8.540;2023-07-30T01:43:32;0.80;;;0.80;;
64186;SDS011;50491;39.484;-8.540;2023-07-30T01:45:52;1.23;;;0.90;;
64186;SDS011;50491;39.484;-8.540;2023-07-30T01:48:11;2.00;;;1.10;;
64186;SDS011;50491;39.484;-8.540;2023-07-30T01:50:11;1.48;;;1.08;;
64186;SDS011;50491;39.484;-8.540;2023-07-30T01:52:31;2.22;;;1.15;;
64186;SDS011;50491;39.484;-8.540;2023-07-30T01:54:31;2.20;;;1.00;;
64186;SDS011;50491;39.484;-8.540;2023-07-30T01:56:32;2.50;;;1.50;;
64186;SDS011;50491;39.484;-8.540;2023-07-30T01:58:51;2.08;;;1.10;;
64186;SDS011;50491;39.484;-8.540;2023-07-30T02:00:52;2.13;;;1.00;;
64186;SDS011;50491;39.484;-8.540;2023-07-30T02:03:11;2.28;;;1.40;;
64186;SDS011;50491;39.484;-8.540;2023-07-30T02:05:30;1.67;;;1.00;;
64186;SDS011;50491;39.484;-8.540;2023-07-30T02:12:28;1.67;;;1.08;;
64186;SDS011;50491;39.484;-8.540;2023-07-30T02:14:29;1.95;;;1.15;;
64186;SDS011;50491;39.484;-8.540;2023-07-30T02:16:34;2.95;;;1.05;;
64186;SDS011;50491;39.484;-8.540;2023-07-30T02:18:35;1.65;;;0.93;;
64186;SDS011;50491;39.484;-8.540;2023-07-30T02:25:56;3.35;;;1.20;;
64186;SDS011;50491;39.484;-8.540;2023-07-30T02:28:15;0.90;;;0.68;;
64186;SDS011;50491;39.484;-8.540;2023-07-30T02:30:16;3.83;;;1.33;;
64186;SDS011;50491;39.484;-8.540;2023-07-30T02:32:17;1.10;;;1.00;;
64186;SDS011;50491;39.484;-8.540;2023-07-30T02:34:36;0.90;;;0.90;;
64186;SDS011;50491;39.484;-8.540;2023-07-30T02:36:37;3.22;;;1.10;;
64186;SDS011;50491;39.484;-8.540;2023-07-30T02:38:56;2.15;;;1.02;;
64186;SDS011;50491;39.484;-8.540;2023-07-30T02:41:02;2.65;;;1.10;;
64186;SDS011;50491;39.484;-8.540;2023-07-30T02:43:03;2.78;;;1.20;;
64186;SDS011;50491;39.484;-8.540;2023-07-30T02:48:01;0.85;;;0.85;;
64186;SDS011;50491;39.484;-8.540;2023-07-30T02:50:03;1.33;;;1.17;;
64186;SDS011;50491;39.484;-8.540;2023-07-30T02:52:04;1.88;;;1.60;;
64186;SDS011;50491;39.484;-8.540;2023-07-30T02:56:25;1.63;;;0.90;;
64186;SDS011;50491;39.484;-8.540;2023-07-30T02:58:44;0.75;;;0.75;;
64186;SDS011;50491;39.484;-8.540;2023-07-30T03:01:06;2.40;;;1.02;;
64186;SDS011;50491;39.484;-8.540;2023-07-30T03:03:09;1.52;;;1.25;;
64186;SDS011;50491;39.484;-8.540;2023-07-30T03:08:25;3.28;;;0.90;;
64186;SDS011;50491;39.484;-8.540;2023-07-30T03:10:44;2.72;;;1.02;;
64186;SDS011;50491;39.484;-8.540;2023-07-30T03:13:03;10.57;;;1.35;;
64186;SDS011;50491;39.484;-8.540;2023-07-30T03:15:22;2.80;;;1.10;;
64186;SDS011;50491;39.484;-8.540;2023-07-30T03:17:23;2.78;;;1.10;;
64186;SDS011;50491;39.484;-8.540;2023-07-30T03:24:59;1.33;;;1.20;;
64186;SDS011;50491;39.484;-8.540;2023-07-30T03:30:38;2.38;;;1.17;;
64186;SDS011;50491;39.484;-8.540;2023-07-30T03:32:57;2.40;;;0.90;;
64186;SDS011;50491;39.484;-8.540;2023-07-30T03:35:16;1.48;;;1.10;;
64186;SDS011;50491;39.484;-8.540;2023-07-30T03:37:17;2.78;;;1.13;;
64186;SDS011;50491;39.484;-8.540;2023-07-30T03:39:36;1.65;;;0.98;;
64186;SDS011;50491;39.484;-8.540;2023-07-30T03:41:56;5.30;;;1.30;;
64186;SDS011;50491;39.484;-8.540;2023-07-30T03:43:56;0.93;;;0.88;;
64186;SDS011;50491;39.484;-8.540;2023-07-30T03:46:15;4.50;;;1.55;;
64186;SDS011;50491;39.484;-8.540;2023-07-30T03:48:16;3.25;;;1.40;;
64186;SDS011;50491;39.484;-8.540;2023-07-30T03:50:17;3.03;;;1.20;;
64186;SDS011;50491;39.484;-8.540;2023-07-30T03:52:17;2.50;;;1.20;;
64186;SDS011;50491;39.484;-8.540;2023-07-30T03:54:18;3.38;;;1.20;;
64186;SDS011;50491;39.484;-8.540;2023-07-30T03:56:18;1.13;;;0.95;;
64186;SDS011;50491;39.484;-8.540;2023-07-30T03:58:37;1.77;;;1.20;;
64186;SDS011;50491;39.484;-8.540;2023-07-30T04:00:56;1.42;;;1.20;;
64186;SDS011;50491;39.484;-8.540;2023-07-30T04:02:57;4.18;;;1.10;;
64186;SDS011;50491;39.484;-8.540;2023-07-30T04:04:58;2.33;;;1.15;;
64186;SDS011;50491;39.484;-8.540;2023-07-30T04:07:17;3.58;;;1.23;;
64186;SDS011;50491;39.484;-8.540;2023-07-30T04:09:18;3.55;;;1.40;;
64186;SDS011;50491;39.484;-8.540;2023-07-30T04:11:19;1.20;;;1.15;;
64186;SDS011;50491;39.484;-8.540;2023-07-30T04:13:20;2.22;;;1.45;;
64186;SDS011;50491;39.484;-8.540;2023-07-30T04:15:20;4.75;;;2.10;;
64186;SDS011;50491;39.484;-8.540;2023-07-30T04:17:21;5.05;;;1.70;;
64186;SDS011;50491;39.484;-8.540;2023-07-30T04:19:40;2.03;;;1.20;;
64186;SDS011;50491;39.484;-8.540;2023-07-30T04:21:41;4.40;;;1.55;;
64186;SDS011;50491;39.484;-8.540;2023-07-30T04:24:00;6.57;;;1.55;;
64186;SDS011;50491;39.484;-8.540;2023-07-30T04:26:02;2.75;;;1.23;;
64186;SDS011;50491;39.484;-8.540;2023-07-30T04:28:27;3.58;;;1.77;;
64186;SDS011;50491;39.484;-8.540;2023-07-30T04:30:46;1.92;;;1.35;;
64186;SDS011;50491;39.484;-8.540;2023-07-30T04:32:47;2.50;;;1.58;;
64186;SDS011;50491;39.484;-8.540;2023-07-30T04:35:07;1.38;;;1.17;;
64186;SDS011;50491;39.484;-8.540;2023-07-30T04:37:08;2.55;;;1.27;;
64186;SDS011;50491;39.484;-8.540;2023-07-30T04:39:09;2.95;;;1.70;;
64186;SDS011;50491;39.484;-8.540;2023-07-30T04:41:18;2.40;;;1.80;;
64186;SDS011;50491;39.484;-8.540;2023-07-30T04:43:24;2.47;;;1.50;;
64186;SDS011;50491;39.484;-8.540;2023-07-30T04:45:29;5.45;;;1.70;;
64186;SDS011;50491;39.484;-8.540;2023-07-30T04:49:49;2.75;;;2.17;;
64186;SDS011;50491;39.484;-8.540;2023-07-30T04:52:08;5.00;;;2.13;;
64186;SDS011;50491;39.484;-8.540;2023-07-30T04:54:09;1.88;;;1.08;;
64186;SDS011;50491;39.484;-8.540;2023-07-30T04:56:10;4.25;;;1.90;;
64186;SDS011;50491;39.484;-8.540;2023-07-30T04:58:10;4.78;;;1.30;;
64186;SDS011;50491;39.484;-8.540;2023-07-30T05:00:20;3.72;;;1.70;;
64186;SDS011;50491;39.484;-8.540;2023-07-30T05:02:21;4.55;;;1.48;;
64186;SDS011;50491;39.484;-8.540;2023-07-30T05:04:27;2.70;;;1.58;;
64186;SDS011;50491;39.484;-8.540;2023-07-30T05:06:28;3.75;;;1.80;;
64186;SDS011;50491;39.484;-8.540;2023-07-30T05:08:28;3.60;;;1.30;;
64186;SDS011;50491;39.484;-8.540;2023-07-30T05:10:29;2.88;;;1.48;;
64186;SDS011;50491;39.484;-8.540;2023-07-30T05:12:30;7.38;;;1.55;;
64186;SDS011;50491;39.484;-8.540;2023-07-30T05:16:49;2.83;;;1.58;;
64186;SDS011;50491;39.484;-8.540;2023-07-30T05:19:08;5.82;;;1.75;;
64186;SDS011;50491;39.484;-8.540;2023-07-30T05:21:15;4.43;;;1.75;;
64186;SDS011;50491;39.484;-8.540;2023-07-30T05:23:15;5.32;;;1.33;;
64186;SDS011;50491;39.484;-8.540;2023-07-30T05:25:16;4.00;;;1.55;;
64186;SDS011;50491;39.484;-8.540;2023-07-30T05:27:17;9.60;;;1.35;;
64186;SDS011;50491;39.484;-8.540;2023-07-30T05:29:17;5.88;;;1.55;;
64186;SDS011;50491;39.484;-8.540;2023-07-30T05:33:56;3.35;;;1.90;;
64186;SDS011;50491;39.484;-8.540;2023-07-30T05:35:57;5.35;;;2.10;;
64186;SDS011;50491;39.484;-8.540;2023-07-30T05:40:54;3.80;;;1.70;;
64186;SDS011;50491;39.484;-8.540;2023-07-30T05:42:55;5.22;;;1.90;;
64186;SDS011;50491;39.484;-8.540;2023-07-30T05:44:55;4.65;;;1.75;;
64186;SDS011;50491;39.484;-8.540;2023-07-30T05:47:21;5.93;;;1.42;;
64186;SDS011;50491;39.484;-8.540;2023-07-30T05:49:22;2.25;;;1.20;;
64186;SDS011;50491;39.484;-8.540;2023-07-30T05:51:23;6.55;;;1.70;;
64186;SDS011;50491;39.484;-8.540;2023-07-30T05:53:23;3.08;;;1.55;;
64186;SDS011;50491;39.484;-8.540;2023-07-30T05:55:24;1.75;;;1.38;;
64186;SDS011;50491;39.484;-8.540;2023-07-30T05:57:25;2.40;;;1.40;;
64186;SDS011;50491;39.484;-8.540;2023-07-30T05:59:25;9.13;;;2.08;;
64186;SDS011;50491;39.484;-8.540;2023-07-30T06:01:26;4.40;;;2.08;;
64186;SDS011;50491;39.484;-8.540;2023-07-30T06:03:27;2.97;;;1.48;;
64186;SDS011;50491;39.484;-8.540;2023-07-30T06:05:46;4.50;;;1.25;;
64186;SDS011;50491;39.484;-8.540;2023-07-30T06:07:46;2.72;;;1.50;;
64186;SDS011;50491;39.484;-8.540;2023-07-30T06:10:11;3.67;;;1.48;;
64186;SDS011;50491;39.484;-8.540;2023-07-30T06:12:11;2.83;;;1.45;;
64186;SDS011;50491;39.484;-8.540;2023-07-30T06:14:12;2.22;;;1.70;;
64186;SDS011;50491;39.484;-8.540;2023-07-30T06:16:13;3.33;;;1.42;;
64186;SDS011;50491;39.484;-8.540;2023-07-30T06:18:14;5.65;;;1.95;;
64186;SDS011;50491;39.484;-8.540;2023-07-30T06:20:34;3.60;;;1.42;;
64186;SDS011;50491;39.484;-8.540;2023-07-30T06:22:34;3.83;;;1.75;;
64186;SDS011;50491;39.484;-8.540;2023-07-30T06:24:53;2.72;;;1.35;;
64186;SDS011;50491;39.484;-8.540;2023-07-30T06:27:12;1.73;;;1.15;;
64186;SDS011;50491;39.484;-8.540;2023-07-30T06:29:13;5.93;;;1.70;;
64186;SDS011;50491;39.484;-8.540;2023-07-30T06:31:14;4.03;;;2.03;;
64186;SDS011;50491;39.484;-8.540;2023-07-30T06:33:14;5.75;;;1.60;;
64186;SDS011;50491;39.484;-8.540;2023-07-30T06:35:15;4.38;;;1.67;;
64186;SDS011;50491;39.484;-8.540;2023-07-30T06:37:15;2.58;;;1.17;;
64186;SDS011;50491;39.484;-8.540;2023-07-30T06:39:16;5.18;;;1.42;;
64186;SDS011;50491;39.484;-8.540;2023-07-30T06:41:17;3.78;;;1.48;;
64186;SDS011;50491;39.484;-8.540;2023-07-30T06:43:36;5.03;;;2.22;;
64186;SDS011;50491;39.484;-8.540;2023-07-30T06:48:02;3.95;;;1.38;;
64186;SDS011;50491;39.484;-8.540;2023-07-30T06:50:21;5.53;;;1.25;;
64186;SDS011;50491;39.484;-8.540;2023-07-30T06:55:43;1.95;;;1.30;;
64186;SDS011;50491;39.484;-8.540;2023-07-30T06:57:44;3.38;;;1.30;;
64186;SDS011;50491;39.484;-8.540;2023-07-30T06:59:44;3.67;;;1.55;;
64186;SDS011;50491;39.484;-8.540;2023-07-30T07:02:23;4.78;;;1.23;;
64186;SDS011;50491;39.484;-8.540;2023-07-30T07:04:42;2.78;;;1.33;;
64186;SDS011;50491;39.484;-8.540;2023-07-30T07:06:43;3.13;;;1.30;;
64186;SDS011;50491;39.484;-8.540;2023-07-30T07:09:02;3.08;;;1.50;;
64186;SDS011;50491;39.484;-8.540;2023-07-30T07:11:29;2.17;;;1.40;;
64186;SDS011;50491;39.484;-8.540;2023-07-30T07:22:25;3.85;;;1.45;;
64186;SDS011;50491;39.484;-8.540;2023-07-30T07:27:47;4.60;;;1.50;;
64186;SDS011;50491;39.484;-8.540;2023-07-30T07:29:48;4.70;;;1.55;;
64186;SDS011;50491;39.484;-8.540;2023-07-30T07:31:49;5.70;;;1.83;;
64186;SDS011;50491;39.484;-8.540;2023-07-30T07:33:54;3.13;;;1.70;;
64186;SDS011;50491;39.484;-8.540;2023-07-30T07:36:13;7.10;;;2.20;;
64186;SDS011;50491;39.484;-8.540;2023-07-30T07:38:30;1.45;;;1.30;;
64186;SDS011;50491;39.484;-8.540;2023-07-30T07:43:09;2.90;;;1.48;;
64186;SDS011;50491;39.484;-8.540;2023-07-30T07:45:28;2.75;;;1.38;;
64186;SDS011;50491;39.484;-8.540;2023-07-30T07:47:28;4.43;;;1.85;;
64186;SDS011;50491;39.484;-8.540;2023-07-30T07:49:29;3.35;;;1.73;;
64186;SDS011;50491;39.484;-8.540;2023-07-30T07:51:31;2.40;;;1.80;;
64186;SDS011;50491;39.484;-8.540;2023-07-30T07:53:50;3.90;;;2.25;;
64186;SDS011;50491;39.484;-8.540;2023-07-30T07:56:09;5.57;;;2.00;;
64186;SDS011;50491;39.484;-8.540;2023-07-30T07:58:29;3.03;;;1.60;;
64186;SDS011;50491;39.484;-8.540;2023-07-30T08:00:30;4.00;;;1.85;;
64186;SDS011;50491;39.484;-8.540;2023-07-30T08:02:49;2.40;;;1.38;;
64186;SDS011;50491;39.484;-8.540;2023-07-30T08:04:50;2.55;;;1.70;;
64186;SDS011;50491;39.484;-8.540;2023-07-30T08:06:51;3.38;;;1.50;;
64186;SDS011;50491;39.484;-8.540;2023-07-30T08:13:49;5.97;;;2.22;;
64186;SDS011;50491;39.484;-8.540;2023-07-30T08:15:50;4.68;;;1.63;;
64186;SDS011;50491;39.484;-8.540;2023-07-30T08:20:49;2.72;;;1.42;;
64186;SDS011;50491;39.484;-8.540;2023-07-30T08:22:50;3.53;;;1.60;;
64186;SDS011;50491;39.484;-8.540;2023-07-30T08:25:09;7.60;;;2.30;;
64186;SDS011;50491;39.484;-8.540;2023-07-30T08:30:12;2.97;;;1.55;;
64186;SDS011;50491;39.484;-8.540;2023-07-30T08:32:32;2.92;;;1.80;;
64186;SDS011;50491;39.484;-8.540;2023-07-30T08:34:52;3.15;;;1.25;;
64186;SDS011;50491;39.484;-8.540;2023-07-30T08:37:11;3.60;;;1.83;;
64186;SDS011;50491;39.484;-8.540;2023-07-30T08:39:12;3.95;;;1.88;;
64186;SDS011;50491;39.484;-8.540;2023-07-30T08:41:12;2.67;;;1.50;;
64186;SDS011;50491;39.484;-8.540;2023-07-30T08:43:13;5.25;;;1.98;;
64186;SDS011;50491;39.484;-8.540;2023-07-30T08:45:14;2.40;;;1.40;;
64186;SDS011;50491;39.484;-8.540;2023-07-30T08:47:30;4.15;;;1.75;;
64186;SDS011;50491;39.484;-8.540;2023-07-30T08:49:31;3.67;;;1.48;;
64186;SDS011;50491;39.484;-8.540;2023-07-30T08:51:34;3.42;;;1.45;;
64186;SDS011;50491;39.484;-8.540;2023-07-30T08:55:38;3.95;;;1.85;;
64186;SDS011;50491;39.484;-8.540;2023-07-30T08:57:58;3.15;;;1.45;;
64186;SDS011;50491;39.484;-8.540;2023-07-30T09:00:03;4.88;;;1.73;;
64186;SDS011;50491;39.484;-8.540;2023-07-30T09:02:05;7.18;;;2.17;;
64186;SDS011;50491;39.484;-8.540;2023-07-30T09:04:11;3.33;;;1.45;;
64186;SDS011;50491;39.484;-8.540;2023-07-30T09:06:30;4.47;;;1.90;;
64186;SDS011;50491;39.484;-8.540;2023-07-30T09:08:31;4.25;;;1.85;;
64186;SDS011;50491;39.484;-8.540;2023-07-30T09:10:32;2.50;;;1.48;;
64186;SDS011;50491;39.484;-8.540;2023-07-30T09:12:57;2.90;;;1.52;;
64186;SDS011;50491;39.484;-8.540;2023-07-30T09:14:59;3.50;;;1.30;;
64186;SDS011;50491;39.484;-8.540;2023-07-30T09:17:19;3.13;;;1.40;;
64186;SDS011;50491;39.484;-8.540;2023-07-30T09:19:20;2.70;;;1.63;;
64186;SDS011;50491;39.484;-8.540;2023-07-30T09:21:39;4.80;;;2.22;;
64186;SDS011;50491;39.484;-8.540;2023-07-30T09:23:40;4.68;;;1.52;;
64186;SDS011;50491;39.484;-8.540;2023-07-30T09:26:04;2.05;;;1.23;;
64186;SDS011;50491;39.484;-8.540;2023-07-30T09:28:32;1.98;;;1.30;;
64186;SDS011;50491;39.484;-8.540;2023-07-30T09:30:33;2.50;;;1.42;;
64186;SDS011;50491;39.484;-8.540;2023-07-30T09:32:53;5.25;;;1.50;;
64186;SDS011;50491;39.484;-8.540;2023-07-30T09:34:54;3.45;;;1.65;;
64186;SDS011;50491;39.484;-8.540;2023-07-30T09:36:56;2.35;;;1.20;;
64186;SDS011;50491;39.484;-8.540;2023-07-30T09:38:57;3.72;;;1.60;;
64186;SDS011;50491;39.484;-8.540;2023-07-30T09:41:01;2.20;;;1.17;;
64186;SDS011;50491;39.484;-8.540;2023-07-30T09:45:23;5.03;;;1.38;;
64186;SDS011;50491;39.484;-8.540;2023-07-30T09:47:50;4.72;;;1.70;;
64186;SDS011;50491;39.484;-8.540;2023-07-30T09:49:57;1.55;;;1.40;;
64186;SDS011;50491;39.484;-8.540;2023-07-30T09:51:57;6.63;;;1.42;;
64186;SDS011;50491;39.484;-8.540;2023-07-30T09:54:17;7.57;;;2.47;;
64186;SDS011;50491;39.484;-8.540;2023-07-30T09:56:36;2.65;;;1.58;;
64186;SDS011;50491;39.484;-8.540;2023-07-30T10:05:40;5.43;;;1.35;;
64186;SDS011;50491;39.484;-8.540;2023-07-30T10:12:23;3.22;;;1.55;;
64186;SDS011;50491;39.484;-8.540;2023-07-30T10:19:26;4.72;;;2.00;;
64186;SDS011;50491;39.484;-8.540;2023-07-30T10:21:31;4.88;;;1.70;;
64186;SDS011;50491;39.484;-8.540;2023-07-30T10:24:09;4.00;;;1.50;;
64186;SDS011;50491;39.484;-8.540;2023-07-30T10:29:12;7.97;;;1.90;;
64186;SDS011;50491;39.484;-8.540;2023-07-30T10:31:17;1.73;;;1.23;;
64186;SDS011;50491;39.484;-8.540;2023-07-30T10:33:17;4.05;;;1.80;;
64186;SDS011;50491;39.484;-8.540;2023-07-30T10:35:42;2.53;;;1.42;;
64186;SDS011;50491;39.484;-8.540;2023-07-30T10:41:13;1.83;;;1.52;;
64186;SDS011;50491;39.484;-8.540;2023-07-30T10:43:16;3.17;;;1.58;;
64186;SDS011;50491;39.484;-8.540;2023-07-30T10:45:18;3.38;;;1.55;;
64186;SDS011;50491;39.484;-8.540;2023-07-30T10:47:37;3.50;;;1.55;;
64186;SDS011;50491;39.484;-8.540;2023-07-30T10:50:00;4.25;;;1.83;;
64186;SDS011;50491;39.484;-8.540;2023-07-30T10:52:23;2.63;;;1.52;;
64186;SDS011;50491;39.484;-8.540;2023-07-30T10:54:43;2.03;;;1.58;;
64186;SDS011;50491;39.484;-8.540;2023-07-30T10:56:44;2.50;;;1.65;;
64186;SDS011;50491;39.484;-8.540;2023-07-30T10:58:48;2.85;;;1.90;;
64186;SDS011;50491;39.484;-8.540;2023-07-30T11:01:09;4.95;;;1.65;;
64186;SDS011;50491;39.484;-8.540;2023-07-30T11:03:10;2.67;;;1.50;;
64186;SDS011;50491;39.484;-8.540;2023-07-30T11:05:29;4.70;;;1.60;;
64186;SDS011;50491;39.484;-8.540;2023-07-30T11:07:49;4.65;;;1.60;;
64186;SDS011;50491;39.484;-8.540;2023-07-30T11:10:09;3.42;;;2.05;;
64186;SDS011;50491;39.484;-8.540;2023-07-30T11:12:10;2.13;;;1.50;;
64186;SDS011;50491;39.484;-8.540;2023-07-30T11:14:14;3.97;;;1.50;;
64186;SDS011;50491;39.484;-8.540;2023-07-30T11:16:16;2.65;;;1.50;;
64186;SDS011;50491;39.484;-8.540;2023-07-30T11:18:42;3.60;;;1.67;;
64186;SDS011;50491;39.484;-8.540;2023-07-30T11:20:44;2.58;;;1.40;;
64186;SDS011;50491;39.484;-8.540;2023-07-30T11:23:03;4.95;;;1.60;;
64186;SDS011;50491;39.484;-8.540;2023-07-30T11:25:17;2.33;;;1.60;;
64186;SDS011;50491;39.484;-8.540;2023-07-30T11:27:23;2.72;;;1.55;;
64186;SDS011;50491;39.484;-8.540;2023-07-30T11:29:24;2.53;;;1.40;;
64186;SDS011;50491;39.484;-8.540;2023-07-30T11:31:25;1.98;;;1.42;;
64186;SDS011;50491;39.484;-8.540;2023-07-30T11:33:46;3.92;;;1.45;;
64186;SDS011;50491;39.484;-8.540;2023-07-30T11:36:07;2.72;;;1.85;;
64186;SDS011;50491;39.484;-8.540;2023-07-30T11:38:08;3.25;;;1.73;;
64186;SDS011;50491;39.484;-8.540;2023-07-30T11:40:33;3.20;;;1.65;;
64186;SDS011;50491;39.484;-8.540;2023-07-30T11:42:34;3.70;;;1.83;;
64186;SDS011;50491;39.484;-8.540;2023-07-30T11:44:37;3.83;;;1.75;;
64186;SDS011;50491;39.484;-8.540;2023-07-30T11:46:57;3.78;;;2.10;;
64186;SDS011;50491;39.484;-8.540;2023-07-30T11:54:05;3.85;;;2.58;;
64186;SDS011;50491;39.484;-8.540;2023-07-30T11:58:34;8.38;;;3.00;;
64186;SDS011;50491;39.484;-8.540;2023-07-30T12:00:35;3.38;;;2.05;;
64186;SDS011;50491;39.484;-8.540;2023-07-30T12:02:40;4.22;;;1.77;;
64186;SDS011;50491;39.484;-8.540;2023-07-30T12:07:23;4.70;;;1.98;;
64186;SDS011;50491;39.484;-8.540;2023-07-30T12:09:27;2.97;;;1.58;;
64186;SDS011;50491;39.484;-8.540;2023-07-30T12:14:05;2.45;;;1.77;;
64186;SDS011;50491;39.484;-8.540;2023-07-30T12:16:24;3.30;;;1.60;;
64186;SDS011;50491;39.484;-8.540;2023-07-30T12:18:43;4.80;;;2.03;;
64186;SDS011;50491;39.484;-8.540;2023-07-30T12:25:41;6.47;;;1.50;;
64186;SDS011;50491;39.484;-8.540;2023-07-30T12:30:19;4.57;;;1.58;;
64186;SDS011;50491;39.484;-8.540;2023-07-30T12:32:38;2.55;;;1.17;;
64186;SDS011;50491;39.484;-8.540;2023-07-30T12:34:57;2.47;;;1.30;;
64186;SDS011;50491;39.484;-8.540;2023-07-30T12:39:37;1.70;;;1.27;;
64186;SDS011;50491;39.484;-8.540;2023-07-30T12:42:01;3.88;;;1.30;;
64186;SDS011;50491;39.484;-8.540;2023-07-30T12:46:21;4.70;;;1.40;;
64186;SDS011;50491;39.484;-8.540;2023-07-30T12:48:21;4.78;;;1.33;;
64186;SDS011;50491;39.484;-8.540;2023-07-30T12:50:22;3.05;;;1.40;;
64186;SDS011;50491;39.484;-8.540;2023-07-30T12:52:41;3.53;;;1.10;;
64186;SDS011;50491;39.484;-8.540;2023-07-30T12:57:20;4.20;;;1.20;;
64186;SDS011;50491;39.484;-8.540;2023-07-30T12:59:58;2.70;;;1.10;;
64186;SDS011;50491;39.484;-8.540;2023-07-30T13:01:59;5.45;;;1.33;;
64186;SDS011;50491;39.484;-8.540;2023-07-30T13:04:24;3.22;;;1.00;;
64186;SDS011;50491;39.484;-8.540;2023-07-30T13:09:21;2.67;;;1.13;;
64186;SDS011;50491;39.484;-8.540;2023-07-30T13:11:40;3.70;;;1.63;;
64186;SDS011;50491;39.484;-8.540;2023-07-30T13:16:55;2.10;;;1.08;;
64186;SDS011;50491;39.484;-8.540;2023-07-30T13:27:16;1.33;;;1.00;;
64186;SDS011;50491;39.484;-8.540;2023-07-30T13:29:17;4.13;;;0.98;;
64186;SDS011;50491;39.484;-8.540;2023-07-30T13:34:32;2.30;;;1.10;;
64186;SDS011;50491;39.484;-8.540;2023-07-30T13:36:33;2.92;;;1.83;;
64186;SDS011;50491;39.484;-8.540;2023-07-30T13:38:34;3.38;;;0.90;;
64186;SDS011;50491;39.484;-8.540;2023-07-30T13:40:53;2.08;;;1.00;;
64186;SDS011;50491;39.484;-8.540;2023-07-30T13:43:12;2.92;;;0.80;;
64186;SDS011;50491;39.484;-8.540;2023-07-30T13:45:13;2.15;;;1.10;;
64186;SDS011;50491;39.484;-8.540;2023-07-30T13:47:32;1.48;;;0.80;;
64186;SDS011;50491;39.484;-8.540;2023-07-30T13:49:51;2.65;;;0.70;;
64186;SDS011;50491;39.484;-8.540;2023-07-30T13:51:52;1.17;;;0.77;;
64186;SDS011;50491;39.484;-8.540;2023-07-30T13:53:53;2.60;;;0.82;;
64186;SDS011;50491;39.484;-8.540;2023-07-30T13:55:53;1.67;;;1.00;;
64186;SDS011;50491;39.484;-8.540;2023-07-30T13:57:54;1.67;;;0.75;;
64186;SDS011;50491;39.484;-8.540;2023-07-30T13:59:54;1.30;;;0.90;;
64186;SDS011;50491;39.484;-8.540;2023-07-30T14:01:55;1.25;;;0.70;;
64186;SDS011;50491;39.484;-8.540;2023-07-30T14:04:16;1.40;;;0.80;;
64186;SDS011;50491;39.484;-8.540;2023-07-30T14:06:35;2.17;;;0.80;;
64186;SDS011;50491;39.484;-8.540;2023-07-30T14:08:37;4.25;;;0.90;;
64186;SDS011;50491;39.484;-8.540;2023-07-30T14:10:55;1.60;;;0.60;;
64186;SDS011;50491;39.484;-8.540;2023-07-30T14:12:57;1.85;;;0.85;;
64186;SDS011;50491;39.484;-8.540;2023-07-30T14:28:09;1.20;;;0.70;;
64186;SDS011;50491;39.484;-8.540;2023-07-30T14:30:29;1.10;;;0.57;;
64186;SDS011;50491;39.484;-8.540;2023-07-30T14:32:48;0.73;;;0.57;;
64186;SDS011;50491;39.484;-8.540;2023-07-30T14:35:07;1.13;;;0.70;;
64186;SDS011;50491;39.484;-8.540;2023-07-30T14:37:27;0.98;;;0.70;;
64186;SDS011;50491;39.484;-8.540;2023-07-30T14:40:05;2.45;;;0.95;;
64186;SDS011;50491;39.484;-8.540;2023-07-30T14:42:06;1.10;;;0.55;;
64186;SDS011;50491;39.484;-8.540;2023-07-30T14:44:08;1.15;;;0.73;;
64186;SDS011;50491;39.484;-8.540;2023-07-30T14:46:08;1.00;;;0.75;;
64186;SDS011;50491;39.484;-8.540;2023-07-30T14:48:13;3.28;;;0.40;;
64186;SDS011;50491;39.484;-8.540;2023-07-30T14:50:39;1.80;;;1.02;;
64186;SDS011;50491;39.484;-8.540;2023-07-30T15:01:11;1.27;;;0.50;;
64186;SDS011;50491;39.484;-8.540;2023-07-30T15:05:56;2.83;;;0.70;;
64186;SDS011;50491;39.484;-8.540;2023-07-30T15:08:15;2.15;;;0.60;;
64186;SDS011;50491;39.484;-8.540;2023-07-30T15:10:16;0.73;;;0.50;;
64186;SDS011;50491;39.484;-8.540;2023-07-30T15:12:17;1.42;;;0.60;;
64186;SDS011;50491;39.484;-8.540;2023-07-30T15:14:18;2.50;;;0.80;;
64186;SDS011;50491;39.484;-8.540;2023-07-30T15:16:37;1.85;;;0.70;;
64186;SDS011;50491;39.484;-8.540;2023-07-30T15:18:56;0.98;;;0.57;;
64186;SDS011;50491;39.484;-8.540;2023-07-30T15:26:04;1.33;;;0.70;;
64186;SDS011;50491;39.484;-8.540;2023-07-30T15:28:23;2.42;;;0.77;;
64186;SDS011;50491;39.484;-8.540;2023-07-30T15:30:42;1.15;;;0.73;;
64186;SDS011;50491;39.484;-8.540;2023-07-30T15:33:01;2.00;;;1.00;;
64186;SDS011;50491;39.484;-8.540;2023-07-30T15:35:03;4.13;;;0.73;;
64186;SDS011;50491;39.484;-8.540;2023-07-30T15:37:23;2.50;;;0.88;;
64186;SDS011;50491;39.484;-8.540;2023-07-30T15:39:42;0.95;;;0.80;;
64186;SDS011;50491;39.484;-8.540;2023-07-30T15:47:05;2.95;;;0.82;;
64186;SDS011;50491;39.484;-8.540;2023-07-30T15:49:06;1.02;;;0.73;;
64186;SDS011;50491;39.484;-8.540;2023-07-30T15:53:28;5.05;;;0.90;;